sensor_id;sensor_type;location;lat;lon;timestamp;temperature;humidity
20345;DHT22;10330;48.816;9.278;2024-03-02T00:02:06;6.80;99.90
20345;DHT22;10330;48.816;9.278;2024-03-02T00:04:33;6.80;99.90
20345;DHT22;10330;48.816;9.278;2024-03-02T00:06:59;6.70;99.90
20345;DHT22;10330;48.816;9.278;2024-03-02T00:09:26;6.70;99.90
20345;DHT22;10330;48.816;9.278;2024-03-02T00:11:52;6.60;99.90
20345;DHT22;10330;48.816;9.278;2024-03-02T00:14:19;6.60;99.90
20345;DHT22;10330;48.816;9.278;2024-03-02T00:16:45;6.60;99.90
20345;DHT22;10330;48.816;9.278;2024-03-02T00:19:12;6.60;99.90
20345;DHT22;10330;48.816;9.278;2024-03-02T00:21:38;6.60;99.90
20345;DHT22;10330;48.816;9.278;2024-03-02T00:24:34;6.60;99.90
20345;DHT22;10330;48.816;9.278;2024-03-02T00:27:00;6.50;99.90
20345;DHT22;10330;48.816;9.278;2024-03-02T00:29:28;6.50;99.90
20345;DHT22;10330;48.816;9.278;2024-03-02T00:31:55;6.40;99.90
20345;DHT22;10330;48.816;9.278;2024-03-02T00:34:21;6.40;99.90
20345;DHT22;10330;48.816;9.278;2024-03-02T00:36:48;6.50;99.90
20345;DHT22;10330;48.816;9.278;2024-03-02T00:39:17;6.40;99.90
20345;DHT22;10330;48.816;9.278;2024-03-02T00:41:44;6.40;99.90
20345;DHT22;10330;48.816;9.278;2024-03-02T00:44:15;6.40;99.90
20345;DHT22;10330;48.816;9.278;2024-03-02T00:46:42;6.40;99.90
20345;DHT22;10330;48.816;9.278;2024-03-02T00:49:23;6.40;99.90
20345;DHT22;10330;48.816;9.278;2024-03-02T00:51:51;6.40;99.90
20345;DHT22;10330;48.816;9.278;2024-03-02T00:54:22;6.30;99.90
20345;DHT22;10330;48.816;9.278;2024-03-02T00:56:51;6.30;99.90
20345;DHT22;10330;48.816;9.278;2024-03-02T00:59:18;6.30;99.90
20345;DHT22;10330;48.816;9.278;2024-03-02T01:01:44;6.20;99.90
20345;DHT22;10330;48.816;9.278;2024-03-02T01:04:11;6.20;99.90
20345;DHT22;10330;48.816;9.278;2024-03-02T01:06:43;6.10;99.90
20345;DHT22;10330;48.816;9.278;2024-03-02T01:09:12;6.20;99.90
20345;DHT22;10330;48.816;9.278;2024-03-02T01:11:39;6.10;99.90
20345;DHT22;10330;48.816;9.278;2024-03-02T01:14:08;6.20;99.90
20345;DHT22;10330;48.816;9.278;2024-03-02T01:16:34;6.10;99.90
20345;DHT22;10330;48.816;9.278;2024-03-02T01:19:00;6.00;99.90
20345;DHT22;10330;48.816;9.278;2024-03-02T01:21:27;6.10;99.90
20345;DHT22;10330;48.816;9.278;2024-03-02T01:23:53;6.00;99.90
20345;DHT22;10330;48.816;9.278;2024-03-02T01:26:22;6.00;99.90
20345;DHT22;10330;48.816;9.278;2024-03-02T01:28:48;6.00;99.90
20345;DHT22;10330;48.816;9.278;2024-03-02T01:31:15;6.00;99.90
20345;DHT22;10330;48.816;9.278;2024-03-02T01:33:41;6.00;99.90
20345;DHT22;10330;48.816;9.278;2024-03-02T01:36:07;5.90;99.90
20345;DHT22;10330;48.816;9.278;2024-03-02T01:38:34;5.90;99.90
20345;DHT22;10330;48.816;9.278;2024-03-02T01:41:01;5.80;99.90
20345;DHT22;10330;48.816;9.278;2024-03-02T01:43:28;5.80;99.90
20345;DHT22;10330;48.816;9.278;2024-03-02T01:45:54;5.80;99.90
20345;DHT22;10330;48.816;9.278;2024-03-02T01:48:22;5.80;99.90
20345;DHT22;10330;48.816;9.278;2024-03-02T01:50:49;5.70;99.90
20345;DHT22;10330;48.816;9.278;2024-03-02T01:53:15;5.70;99.90
20345;DHT22;10330;48.816;9.278;2024-03-02T01:55:42;5.60;99.90
20345;DHT22;10330;48.816;9.278;2024-03-02T01:58:09;5.60;99.90
20345;DHT22;10330;48.816;9.278;2024-03-02T02:00:35;5.60;99.90
20345;DHT22;10330;48.816;9.278;2024-03-02T02:03:02;5.60;99.90
20345;DHT22;10330;48.816;9.278;2024-03-02T02:05:28;5.60;99.90
20345;DHT22;10330;48.816;9.278;2024-03-02T02:07:55;5.50;99.90
20345;DHT22;10330;48.816;9.278;2024-03-02T02:10:21;5.50;99.90
20345;DHT22;10330;48.816;9.278;2024-03-02T02:12:51;5.40;99.90
20345;DHT22;10330;48.816;9.278;2024-03-02T02:15:28;5.40;99.90
20345;DHT22;10330;48.816;9.278;2024-03-02T02:17:56;5.30;99.90
20345;DHT22;10330;48.816;9.278;2024-03-02T02:20:23;5.30;99.90
20345;DHT22;10330;48.816;9.278;2024-03-02T02:22:57;5.20;99.90
20345;DHT22;10330;48.816;9.278;2024-03-02T02:25:24;5.20;99.90
20345;DHT22;10330;48.816;9.278;2024-03-02T02:27:50;5.20;99.90
20345;DHT22;10330;48.816;9.278;2024-03-02T02:30:21;5.20;99.90
20345;DHT22;10330;48.816;9.278;2024-03-02T02:32:51;5.20;99.90
20345;DHT22;10330;48.816;9.278;2024-03-02T02:35:17;5.20;99.90
20345;DHT22;10330;48.816;9.278;2024-03-02T02:37:45;5.20;99.90
20345;DHT22;10330;48.816;9.278;2024-03-02T02:40:12;5.20;99.90
20345;DHT22;10330;48.816;9.278;2024-03-02T02:42:39;5.10;99.90
20345;DHT22;10330;48.816;9.278;2024-03-02T02:45:06;5.10;99.90
20345;DHT22;10330;48.816;9.278;2024-03-02T02:47:33;5.00;99.90
20345;DHT22;10330;48.816;9.278;2024-03-02T02:50:03;5.00;99.90
20345;DHT22;10330;48.816;9.278;2024-03-02T02:52:34;5.00;99.90
20345;DHT22;10330;48.816;9.278;2024-03-02T02:55:09;4.90;99.90
20345;DHT22;10330;48.816;9.278;2024-03-02T02:57:36;4.90;99.90
20345;DHT22;10330;48.816;9.278;2024-03-02T03:00:11;4.90;99.90
20345;DHT22;10330;48.816;9.278;2024-03-02T03:02:48;4.90;99.90
20345;DHT22;10330;48.816;9.278;2024-03-02T03:05:15;4.90;99.90
20345;DHT22;10330;48.816;9.278;2024-03-02T03:07:42;4.80;99.90
20345;DHT22;10330;48.816;9.278;2024-03-02T03:10:10;4.90;99.90
20345;DHT22;10330;48.816;9.278;2024-03-02T03:12:37;4.80;99.90
20345;DHT22;10330;48.816;9.278;2024-03-02T03:15:04;4.80;99.90
20345;DHT22;10330;48.816;9.278;2024-03-02T03:17:34;4.80;99.90
20345;DHT22;10330;48.816;9.278;2024-03-02T03:20:02;4.80;99.90
20345;DHT22;10330;48.816;9.278;2024-03-02T03:22:30;4.80;99.90
20345;DHT22;10330;48.816;9.278;2024-03-02T03:24:57;4.80;99.90
20345;DHT22;10330;48.816;9.278;2024-03-02T03:27:24;4.80;99.90
20345;DHT22;10330;48.816;9.278;2024-03-02T03:29:50;4.80;99.90
20345;DHT22;10330;48.816;9.278;2024-03-02T03:32:16;4.80;99.90
20345;DHT22;10330;48.816;9.278;2024-03-02T03:34:43;4.70;99.90
20345;DHT22;10330;48.816;9.278;2024-03-02T03:37:09;4.80;99.90
20345;DHT22;10330;48.816;9.278;2024-03-02T03:39:35;4.70;99.90
20345;DHT22;10330;48.816;9.278;2024-03-02T03:42:02;4.70;99.90
20345;DHT22;10330;48.816;9.278;2024-03-02T03:44:28;4.70;99.90
20345;DHT22;10330;48.816;9.278;2024-03-02T03:46:55;4.60;99.90
20345;DHT22;10330;48.816;9.278;2024-03-02T03:49:21;4.60;99.90
20345;DHT22;10330;48.816;9.278;2024-03-02T03:51:47;4.60;99.90
20345;DHT22;10330;48.816;9.278;2024-03-02T03:54:14;4.50;99.90
20345;DHT22;10330;48.816;9.278;2024-03-02T03:56:40;4.50;99.90
20345;DHT22;10330;48.816;9.278;2024-03-02T03:59:06;4.50;99.90
20345;DHT22;10330;48.816;9.278;2024-03-02T04:01:33;4.40;99.90
20345;DHT22;10330;48.816;9.278;2024-03-02T04:03:59;4.40;99.90
20345;DHT22;10330;48.816;9.278;2024-03-02T04:06:28;4.40;99.90
20345;DHT22;10330;48.816;9.278;2024-03-02T04:08:54;4.30;99.90
20345;DHT22;10330;48.816;9.278;2024-03-02T04:11:20;4.30;99.90
20345;DHT22;10330;48.816;9.278;2024-03-02T04:13:49;4.30;99.90
20345;DHT22;10330;48.816;9.278;2024-03-02T04:16:15;4.30;99.90
20345;DHT22;10330;48.816;9.278;2024-03-02T04:18:45;4.20;99.90
20345;DHT22;10330;48.816;9.278;2024-03-02T04:21:11;4.10;99.90
20345;DHT22;10330;48.816;9.278;2024-03-02T04:23:38;4.20;99.90
20345;DHT22;10330;48.816;9.278;2024-03-02T04:26:04;4.10;99.90
20345;DHT22;10330;48.816;9.278;2024-03-02T04:28:30;4.10;99.90
20345;DHT22;10330;48.816;9.278;2024-03-02T04:30:57;4.00;99.90
20345;DHT22;10330;48.816;9.278;2024-03-02T04:33:23;4.00;99.90
20345;DHT22;10330;48.816;9.278;2024-03-02T04:35:49;4.00;99.90
20345;DHT22;10330;48.816;9.278;2024-03-02T04:38:15;4.00;99.90
20345;DHT22;10330;48.816;9.278;2024-03-02T04:40:42;4.00;99.90
20345;DHT22;10330;48.816;9.278;2024-03-02T04:43:08;4.00;99.90
20345;DHT22;10330;48.816;9.278;2024-03-02T04:45:38;4.00;99.90
20345;DHT22;10330;48.816;9.278;2024-03-02T04:48:04;4.10;99.90
20345;DHT22;10330;48.816;9.278;2024-03-02T04:50:31;4.10;99.90
20345;DHT22;10330;48.816;9.278;2024-03-02T04:52:57;4.10;99.90
20345;DHT22;10330;48.816;9.278;2024-03-02T04:55:23;4.10;99.90
20345;DHT22;10330;48.816;9.278;2024-03-02T04:58:05;4.10;99.90
20345;DHT22;10330;48.816;9.278;2024-03-02T05:00:33;4.10;99.90
20345;DHT22;10330;48.816;9.278;2024-03-02T05:02:59;4.10;99.90
20345;DHT22;10330;48.816;9.278;2024-03-02T05:05:25;4.00;99.90
20345;DHT22;10330;48.816;9.278;2024-03-02T05:07:52;4.00;99.90
20345;DHT22;10330;48.816;9.278;2024-03-02T05:10:19;4.00;99.90
20345;DHT22;10330;48.816;9.278;2024-03-02T05:12:45;4.00;99.90
20345;DHT22;10330;48.816;9.278;2024-03-02T05:15:13;3.90;99.90
20345;DHT22;10330;48.816;9.278;2024-03-02T05:17:40;3.90;99.90
20345;DHT22;10330;48.816;9.278;2024-03-02T05:20:09;3.90;99.90
20345;DHT22;10330;48.816;9.278;2024-03-02T05:22:39;3.90;99.90
20345;DHT22;10330;48.816;9.278;2024-03-02T05:25:11;3.90;99.90
20345;DHT22;10330;48.816;9.278;2024-03-02T05:32:12;3.80;99.90
20345;DHT22;10330;48.816;9.278;2024-03-02T05:38:53;3.80;99.90
20345;DHT22;10330;48.816;9.278;2024-03-02T05:41:45;3.80;99.90
20345;DHT22;10330;48.816;9.278;2024-03-02T05:44:42;3.90;99.90
20345;DHT22;10330;48.816;9.278;2024-03-02T05:47:54;3.90;99.90
20345;DHT22;10330;48.816;9.278;2024-03-02T05:50:21;3.90;99.90
20345;DHT22;10330;48.816;9.278;2024-03-02T05:52:47;3.90;99.90
20345;DHT22;10330;48.816;9.278;2024-03-02T05:55:13;3.80;99.90
20345;DHT22;10330;48.816;9.278;2024-03-02T05:57:40;3.80;99.90
20345;DHT22;10330;48.816;9.278;2024-03-02T06:00:07;3.80;99.90
20345;DHT22;10330;48.816;9.278;2024-03-02T06:02:41;3.80;99.90
20345;DHT22;10330;48.816;9.278;2024-03-02T06:05:08;3.80;99.90
20345;DHT22;10330;48.816;9.278;2024-03-02T06:07:35;3.80;99.90
20345;DHT22;10330;48.816;9.278;2024-03-02T06:10:01;3.80;99.90
20345;DHT22;10330;48.816;9.278;2024-03-02T06:12:27;3.80;99.90
20345;DHT22;10330;48.816;9.278;2024-03-02T06:14:54;3.90;99.90
20345;DHT22;10330;48.816;9.278;2024-03-02T06:17:27;3.90;99.90
20345;DHT22;10330;48.816;9.278;2024-03-02T06:19:53;3.90;99.90
20345;DHT22;10330;48.816;9.278;2024-03-02T06:22:19;3.90;99.90
20345;DHT22;10330;48.816;9.278;2024-03-02T06:24:46;3.90;99.90
20345;DHT22;10330;48.816;9.278;2024-03-02T06:27:12;3.90;99.90
20345;DHT22;10330;48.816;9.278;2024-03-02T06:29:38;4.00;99.90
20345;DHT22;10330;48.816;9.278;2024-03-02T06:32:05;4.00;99.90
20345;DHT22;10330;48.816;9.278;2024-03-02T06:34:31;4.00;99.90
20345;DHT22;10330;48.816;9.278;2024-03-02T06:37:00;4.00;99.90
20345;DHT22;10330;48.816;9.278;2024-03-02T06:39:26;4.10;99.90
20345;DHT22;10330;48.816;9.278;2024-03-02T06:41:52;4.10;99.90
20345;DHT22;10330;48.816;9.278;2024-03-02T06:44:19;4.10;99.90
20345;DHT22;10330;48.816;9.278;2024-03-02T06:46:45;4.20;99.90
20345;DHT22;10330;48.816;9.278;2024-03-02T06:49:11;4.30;99.90
20345;DHT22;10330;48.816;9.278;2024-03-02T06:51:38;4.40;99.90
20345;DHT22;10330;48.816;9.278;2024-03-02T06:54:04;4.40;99.90
20345;DHT22;10330;48.816;9.278;2024-03-02T06:56:30;4.40;99.90
20345;DHT22;10330;48.816;9.278;2024-03-02T06:58:59;4.40;99.90
20345;DHT22;10330;48.816;9.278;2024-03-02T07:01:25;4.50;99.90
20345;DHT22;10330;48.816;9.278;2024-03-02T07:03:52;4.50;99.90
20345;DHT22;10330;48.816;9.278;2024-03-02T07:06:18;4.60;99.90
20345;DHT22;10330;48.816;9.278;2024-03-02T07:08:45;4.70;99.90
20345;DHT22;10330;48.816;9.278;2024-03-02T07:11:13;4.80;99.90
20345;DHT22;10330;48.816;9.278;2024-03-02T07:13:40;4.80;99.90
20345;DHT22;10330;48.816;9.278;2024-03-02T07:16:06;4.90;99.90
20345;DHT22;10330;48.816;9.278;2024-03-02T07:18:53;5.00;99.90
20345;DHT22;10330;48.816;9.278;2024-03-02T07:21:21;5.10;99.90
20345;DHT22;10330;48.816;9.278;2024-03-02T07:23:48;5.20;99.90
20345;DHT22;10330;48.816;9.278;2024-03-02T07:26:15;5.30;99.90
20345;DHT22;10330;48.816;9.278;2024-03-02T07:28:41;5.30;99.90
20345;DHT22;10330;48.816;9.278;2024-03-02T07:31:08;5.40;99.90
20345;DHT22;10330;48.816;9.278;2024-03-02T07:33:39;5.60;99.90
20345;DHT22;10330;48.816;9.278;2024-03-02T07:36:05;5.60;99.90
20345;DHT22;10330;48.816;9.278;2024-03-02T07:38:32;5.60;99.90
20345;DHT22;10330;48.816;9.278;2024-03-02T07:41:00;5.80;99.90
20345;DHT22;10330;48.816;9.278;2024-03-02T07:43:26;5.80;99.90
20345;DHT22;10330;48.816;9.278;2024-03-02T07:45:53;6.10;99.90
20345;DHT22;10330;48.816;9.278;2024-03-02T07:48:19;6.20;99.90
20345;DHT22;10330;48.816;9.278;2024-03-02T07:50:45;6.30;99.90
20345;DHT22;10330;48.816;9.278;2024-03-02T07:53:12;6.40;99.90
20345;DHT22;10330;48.816;9.278;2024-03-02T07:55:38;6.50;99.90
20345;DHT22;10330;48.816;9.278;2024-03-02T07:58:07;6.60;99.90
20345;DHT22;10330;48.816;9.278;2024-03-02T08:00:34;6.70;99.90
20345;DHT22;10330;48.816;9.278;2024-03-02T08:03:01;6.70;99.90
20345;DHT22;10330;48.816;9.278;2024-03-02T08:05:29;6.80;99.90
20345;DHT22;10330;48.816;9.278;2024-03-02T08:07:55;6.90;99.90
20345;DHT22;10330;48.816;9.278;2024-03-02T08:10:21;6.90;99.90
20345;DHT22;10330;48.816;9.278;2024-03-02T08:12:47;6.90;99.90
20345;DHT22;10330;48.816;9.278;2024-03-02T08:15:14;6.90;99.90
20345;DHT22;10330;48.816;9.278;2024-03-02T08:17:40;6.90;99.90
20345;DHT22;10330;48.816;9.278;2024-03-02T08:20:14;7.00;99.90
20345;DHT22;10330;48.816;9.278;2024-03-02T08:22:40;7.00;99.90
20345;DHT22;10330;48.816;9.278;2024-03-02T08:25:07;7.00;99.90
20345;DHT22;10330;48.816;9.278;2024-03-02T08:27:34;7.00;99.90
20345;DHT22;10330;48.816;9.278;2024-03-02T08:30:00;7.10;99.90
20345;DHT22;10330;48.816;9.278;2024-03-02T08:32:27;7.20;99.90
20345;DHT22;10330;48.816;9.278;2024-03-02T08:34:53;7.10;99.90
20345;DHT22;10330;48.816;9.278;2024-03-02T08:37:19;7.20;99.90
20345;DHT22;10330;48.816;9.278;2024-03-02T08:39:45;7.20;99.90
20345;DHT22;10330;48.816;9.278;2024-03-02T08:42:12;7.20;99.90
20345;DHT22;10330;48.816;9.278;2024-03-02T08:44:38;7.30;99.90
20345;DHT22;10330;48.816;9.278;2024-03-02T08:47:04;7.40;99.90
20345;DHT22;10330;48.816;9.278;2024-03-02T08:49:30;7.40;99.90
20345;DHT22;10330;48.816;9.278;2024-03-02T08:51:57;7.40;99.90
20345;DHT22;10330;48.816;9.278;2024-03-02T08:54:23;7.40;99.90
20345;DHT22;10330;48.816;9.278;2024-03-02T08:56:50;7.50;99.90
20345;DHT22;10330;48.816;9.278;2024-03-02T08:59:17;7.60;99.90
20345;DHT22;10330;48.816;9.278;2024-03-02T09:01:43;7.60;99.90
20345;DHT22;10330;48.816;9.278;2024-03-02T09:04:09;7.70;99.90
20345;DHT22;10330;48.816;9.278;2024-03-02T09:06:36;7.80;99.90
20345;DHT22;10330;48.816;9.278;2024-03-02T09:09:02;7.90;99.90
20345;DHT22;10330;48.816;9.278;2024-03-02T09:11:28;8.00;99.90
20345;DHT22;10330;48.816;9.278;2024-03-02T09:13:55;8.10;99.90
20345;DHT22;10330;48.816;9.278;2024-03-02T09:16:22;8.10;99.90
20345;DHT22;10330;48.816;9.278;2024-03-02T09:18:49;8.30;99.90
20345;DHT22;10330;48.816;9.278;2024-03-02T09:21:20;8.40;99.90
20345;DHT22;10330;48.816;9.278;2024-03-02T09:23:46;8.50;99.90
20345;DHT22;10330;48.816;9.278;2024-03-02T09:26:14;8.60;99.90
20345;DHT22;10330;48.816;9.278;2024-03-02T09:28:45;8.70;99.90
20345;DHT22;10330;48.816;9.278;2024-03-02T09:31:11;8.80;99.90
20345;DHT22;10330;48.816;9.278;2024-03-02T09:33:41;8.90;99.90
20345;DHT22;10330;48.816;9.278;2024-03-02T09:36:18;9.00;99.90
20345;DHT22;10330;48.816;9.278;2024-03-02T09:38:45;9.10;99.90
20345;DHT22;10330;48.816;9.278;2024-03-02T09:41:12;9.20;99.90
20345;DHT22;10330;48.816;9.278;2024-03-02T09:43:38;9.30;99.90
20345;DHT22;10330;48.816;9.278;2024-03-02T09:46:05;9.40;99.90
20345;DHT22;10330;48.816;9.278;2024-03-02T09:48:32;9.50;99.90
20345;DHT22;10330;48.816;9.278;2024-03-02T09:51:01;9.60;99.90
20345;DHT22;10330;48.816;9.278;2024-03-02T09:53:31;9.70;99.90
20345;DHT22;10330;48.816;9.278;2024-03-02T09:56:01;9.70;99.90
20345;DHT22;10330;48.816;9.278;2024-03-02T09:58:29;9.90;99.90
20345;DHT22;10330;48.816;9.278;2024-03-02T10:00:56;10.00;99.90
20345;DHT22;10330;48.816;9.278;2024-03-02T10:03:23;10.10;99.90
20345;DHT22;10330;48.816;9.278;2024-03-02T10:05:53;10.20;99.90
20345;DHT22;10330;48.816;9.278;2024-03-02T10:08:26;10.40;99.90
20345;DHT22;10330;48.816;9.278;2024-03-02T10:10:53;10.50;99.90
20345;DHT22;10330;48.816;9.278;2024-03-02T10:13:19;10.60;99.90
20345;DHT22;10330;48.816;9.278;2024-03-02T10:15:51;10.70;99.90
20345;DHT22;10330;48.816;9.278;2024-03-02T10:18:26;10.70;99.90
20345;DHT22;10330;48.816;9.278;2024-03-02T10:20:54;10.90;99.90
20345;DHT22;10330;48.816;9.278;2024-03-02T10:23:21;11.00;99.90
20345;DHT22;10330;48.816;9.278;2024-03-02T10:25:47;11.10;99.90
20345;DHT22;10330;48.816;9.278;2024-03-02T10:28:15;11.20;99.90
20345;DHT22;10330;48.816;9.278;2024-03-02T10:30:42;11.40;99.90
20345;DHT22;10330;48.816;9.278;2024-03-02T10:33:09;11.50;99.90
20345;DHT22;10330;48.816;9.278;2024-03-02T10:35:35;11.50;99.90
20345;DHT22;10330;48.816;9.278;2024-03-02T10:38:06;11.60;99.90
20345;DHT22;10330;48.816;9.278;2024-03-02T10:40:36;11.70;99.90
20345;DHT22;10330;48.816;9.278;2024-03-02T10:43:03;11.90;99.90
20345;DHT22;10330;48.816;9.278;2024-03-02T10:45:34;12.10;99.90
20345;DHT22;10330;48.816;9.278;2024-03-02T10:48:02;12.30;99.90
20345;DHT22;10330;48.816;9.278;2024-03-02T10:50:29;12.50;99.90
20345;DHT22;10330;48.816;9.278;2024-03-02T10:52:55;12.70;99.90
20345;DHT22;10330;48.816;9.278;2024-03-02T10:55:22;12.90;99.90
20345;DHT22;10330;48.816;9.278;2024-03-02T10:57:51;13.00;99.90
20345;DHT22;10330;48.816;9.278;2024-03-02T11:00:19;13.30;99.90
20345;DHT22;10330;48.816;9.278;2024-03-02T11:02:57;13.50;99.90
20345;DHT22;10330;48.816;9.278;2024-03-02T11:05:28;13.80;99.90
20345;DHT22;10330;48.816;9.278;2024-03-02T11:08:06;14.30;99.90
20345;DHT22;10330;48.816;9.278;2024-03-02T11:10:50;14.70;99.90
20345;DHT22;10330;48.816;9.278;2024-03-02T11:13:22;15.00;99.90
20345;DHT22;10330;48.816;9.278;2024-03-02T11:15:52;15.30;99.90
20345;DHT22;10330;48.816;9.278;2024-03-02T11:18:21;15.80;99.90
20345;DHT22;10330;48.816;9.278;2024-03-02T11:20:51;16.40;99.90
20345;DHT22;10330;48.816;9.278;2024-03-02T11:23:18;16.90;99.90
20345;DHT22;10330;48.816;9.278;2024-03-02T11:25:44;17.40;99.90
20345;DHT22;10330;48.816;9.278;2024-03-02T11:28:11;18.00;99.90
20345;DHT22;10330;48.816;9.278;2024-03-02T11:33:05;19.10;99.90
20345;DHT22;10330;48.816;9.278;2024-03-02T11:35:44;19.10;99.90
20345;DHT22;10330;48.816;9.278;2024-03-02T11:38:52;19.10;99.90
20345;DHT22;10330;48.816;9.278;2024-03-02T11:41:19;19.50;99.90
20345;DHT22;10330;48.816;9.278;2024-03-02T11:43:46;19.70;99.90
20345;DHT22;10330;48.816;9.278;2024-03-02T11:46:18;20.10;99.90
20345;DHT22;10330;48.816;9.278;2024-03-02T11:48:50;20.10;99.90
20345;DHT22;10330;48.816;9.278;2024-03-02T11:51:16;20.50;99.90
20345;DHT22;10330;48.816;9.278;2024-03-02T11:53:44;20.40;99.90
20345;DHT22;10330;48.816;9.278;2024-03-02T11:56:12;20.10;99.90
20345;DHT22;10330;48.816;9.278;2024-03-02T11:58:40;20.10;99.90
20345;DHT22;10330;48.816;9.278;2024-03-02T12:01:07;20.30;99.90
20345;DHT22;10330;48.816;9.278;2024-03-02T12:03:38;20.50;99.90
20345;DHT22;10330;48.816;9.278;2024-03-02T12:06:07;20.90;99.90
20345;DHT22;10330;48.816;9.278;2024-03-02T12:08:34;21.10;99.90
20345;DHT22;10330;48.816;9.278;2024-03-02T12:11:02;21.20;99.90
20345;DHT22;10330;48.816;9.278;2024-03-02T12:13:28;21.10;99.90
20345;DHT22;10330;48.816;9.278;2024-03-02T12:15:55;21.00;99.90
20345;DHT22;10330;48.816;9.278;2024-03-02T12:18:25;21.00;99.90
20345;DHT22;10330;48.816;9.278;2024-03-02T12:20:51;21.20;99.90
20345;DHT22;10330;48.816;9.278;2024-03-02T12:23:19;21.30;99.90
20345;DHT22;10330;48.816;9.278;2024-03-02T12:25:46;21.40;99.90
20345;DHT22;10330;48.816;9.278;2024-03-02T12:28:13;21.40;99.30
20345;DHT22;10330;48.816;9.278;2024-03-02T12:30:39;21.50;99.90
20345;DHT22;10330;48.816;9.278;2024-03-02T12:33:05;21.70;98.80
20345;DHT22;10330;48.816;9.278;2024-03-02T12:35:32;21.60;97.70
20345;DHT22;10330;48.816;9.278;2024-03-02T12:37:58;21.40;98.70
20345;DHT22;10330;48.816;9.278;2024-03-02T12:40:24;21.50;98.20
20345;DHT22;10330;48.816;9.278;2024-03-02T12:42:51;21.50;97.40
20345;DHT22;10330;48.816;9.278;2024-03-02T12:45:17;21.70;98.60
20345;DHT22;10330;48.816;9.278;2024-03-02T12:47:53;22.20;99.10
20345;DHT22;10330;48.816;9.278;2024-03-02T12:50:20;22.60;96.80
20345;DHT22;10330;48.816;9.278;2024-03-02T12:52:53;22.70;95.20
20345;DHT22;10330;48.816;9.278;2024-03-02T12:55:33;22.80;95.80
20345;DHT22;10330;48.816;9.278;2024-03-02T12:58:00;23.00;94.40
20345;DHT22;10330;48.816;9.278;2024-03-02T13:00:29;23.20;94.00
20345;DHT22;10330;48.816;9.278;2024-03-02T13:02:58;23.20;93.20
20345;DHT22;10330;48.816;9.278;2024-03-02T13:05:30;23.50;92.80
20345;DHT22;10330;48.816;9.278;2024-03-02T13:07:58;23.70;92.60
20345;DHT22;10330;48.816;9.278;2024-03-02T13:10:29;23.60;91.20
20345;DHT22;10330;48.816;9.278;2024-03-02T13:12:56;23.60;90.80
20345;DHT22;10330;48.816;9.278;2024-03-02T13:15:23;23.60;90.80
20345;DHT22;10330;48.816;9.278;2024-03-02T13:17:51;23.50;91.20
20345;DHT22;10330;48.816;9.278;2024-03-02T13:20:17;23.30;86.10
20345;DHT22;10330;48.816;9.278;2024-03-02T13:22:45;23.50;84.30
20345;DHT22;10330;48.816;9.278;2024-03-02T13:25:11;23.90;86.60
20345;DHT22;10330;48.816;9.278;2024-03-02T13:27:37;24.10;90.00
20345;DHT22;10330;48.816;9.278;2024-03-02T13:30:04;24.20;87.80
20345;DHT22;10330;48.816;9.278;2024-03-02T13:32:32;24.20;85.60
20345;DHT22;10330;48.816;9.278;2024-03-02T13:34:58;23.70;85.70
20345;DHT22;10330;48.816;9.278;2024-03-02T13:37:25;24.00;85.60
20345;DHT22;10330;48.816;9.278;2024-03-02T13:39:51;23.90;86.70
20345;DHT22;10330;48.816;9.278;2024-03-02T13:42:17;23.80;85.20
20345;DHT22;10330;48.816;9.278;2024-03-02T13:44:44;23.80;86.30
20345;DHT22;10330;48.816;9.278;2024-03-02T13:47:15;23.90;85.40
20345;DHT22;10330;48.816;9.278;2024-03-02T13:49:42;23.90;84.70
20345;DHT22;10330;48.816;9.278;2024-03-02T13:52:12;23.90;83.60
20345;DHT22;10330;48.816;9.278;2024-03-02T13:54:44;24.00;85.10
20345;DHT22;10330;48.816;9.278;2024-03-02T13:57:14;24.10;83.90
20345;DHT22;10330;48.816;9.278;2024-03-02T13:59:41;24.20;83.20
20345;DHT22;10330;48.816;9.278;2024-03-02T14:02:08;24.50;84.50
20345;DHT22;10330;48.816;9.278;2024-03-02T14:04:35;24.40;83.70
20345;DHT22;10330;48.816;9.278;2024-03-02T14:07:02;24.20;81.10
20345;DHT22;10330;48.816;9.278;2024-03-02T14:09:28;23.70;81.30
20345;DHT22;10330;48.816;9.278;2024-03-02T14:11:55;23.70;81.80
20345;DHT22;10330;48.816;9.278;2024-03-02T14:14:22;23.90;80.50
20345;DHT22;10330;48.816;9.278;2024-03-02T14:16:49;24.10;81.60
20345;DHT22;10330;48.816;9.278;2024-03-02T14:19:15;24.10;80.70
20345;DHT22;10330;48.816;9.278;2024-03-02T14:21:41;24.10;79.30
20345;DHT22;10330;48.816;9.278;2024-03-02T14:24:07;24.20;78.10
20345;DHT22;10330;48.816;9.278;2024-03-02T14:26:34;24.20;78.40
20345;DHT22;10330;48.816;9.278;2024-03-02T14:29:01;24.00;79.20
20345;DHT22;10330;48.816;9.278;2024-03-02T14:31:28;23.70;78.80
20345;DHT22;10330;48.816;9.278;2024-03-02T14:33:54;23.20;77.20
20345;DHT22;10330;48.816;9.278;2024-03-02T14:36:21;23.00;77.10
20345;DHT22;10330;48.816;9.278;2024-03-02T14:38:47;22.50;77.10
20345;DHT22;10330;48.816;9.278;2024-03-02T14:41:14;22.30;77.20
20345;DHT22;10330;48.816;9.278;2024-03-02T14:43:40;22.10;77.90
20345;DHT22;10330;48.816;9.278;2024-03-02T14:46:07;21.90;78.10
20345;DHT22;10330;48.816;9.278;2024-03-02T14:48:39;21.60;78.10
20345;DHT22;10330;48.816;9.278;2024-03-02T14:51:05;21.80;78.90
20345;DHT22;10330;48.816;9.278;2024-03-02T14:53:31;21.90;78.70
20345;DHT22;10330;48.816;9.278;2024-03-02T14:55:57;21.80;78.20
20345;DHT22;10330;48.816;9.278;2024-03-02T14:58:24;21.90;77.60
20345;DHT22;10330;48.816;9.278;2024-03-02T15:00:51;21.60;76.80
20345;DHT22;10330;48.816;9.278;2024-03-02T15:03:18;21.40;77.50
20345;DHT22;10330;48.816;9.278;2024-03-02T15:05:44;21.30;78.20
20345;DHT22;10330;48.816;9.278;2024-03-02T15:08:11;21.20;79.70
20345;DHT22;10330;48.816;9.278;2024-03-02T15:10:37;21.20;80.50
20345;DHT22;10330;48.816;9.278;2024-03-02T15:13:04;21.20;80.20
20345;DHT22;10330;48.816;9.278;2024-03-02T15:15:30;21.20;79.20
20345;DHT22;10330;48.816;9.278;2024-03-02T15:17:56;21.10;79.10
20345;DHT22;10330;48.816;9.278;2024-03-02T15:20:22;21.00;78.60
20345;DHT22;10330;48.816;9.278;2024-03-02T15:22:48;20.80;78.90
20345;DHT22;10330;48.816;9.278;2024-03-02T15:25:15;20.60;78.80
20345;DHT22;10330;48.816;9.278;2024-03-02T15:27:42;20.70;78.70
20345;DHT22;10330;48.816;9.278;2024-03-02T15:30:09;20.50;78.30
20345;DHT22;10330;48.816;9.278;2024-03-02T15:32:35;20.20;78.70
20345;DHT22;10330;48.816;9.278;2024-03-02T15:35:03;19.90;79.10
20345;DHT22;10330;48.816;9.278;2024-03-02T15:37:29;19.60;80.80
20345;DHT22;10330;48.816;9.278;2024-03-02T15:39:56;19.10;83.20
20345;DHT22;10330;48.816;9.278;2024-03-02T15:42:22;18.90;84.80
20345;DHT22;10330;48.816;9.278;2024-03-02T15:44:49;18.50;87.70
20345;DHT22;10330;48.816;9.278;2024-03-02T15:47:15;18.00;89.60
20345;DHT22;10330;48.816;9.278;2024-03-02T15:49:42;17.80;90.90
20345;DHT22;10330;48.816;9.278;2024-03-02T15:52:08;17.40;91.90
20345;DHT22;10330;48.816;9.278;2024-03-02T15:54:34;17.00;91.70
20345;DHT22;10330;48.816;9.278;2024-03-02T15:57:01;16.70;92.50